Airfield :
LOGIN :

Register | Disclaimer

   EN    FR    IT 

 










Legend :    VFR   Marginal VFR   IFR   Intensive IFR   Very Intensive IFR
Visi :
Ceiling :
>= 8 km
>= 3000ft
5 to 8 km
1000 to 3000 ft
1500m to 5 km
500 to 1000 ft
800 to 1500m
200 to 500 ft
< 800m
< 200 ft
Symbols :   Thunderstorms  Fog  Heavy snow  Heavy precipitations  Wind > 20 kt
SIGMETs :     Misc.  Thunderstorms  Icing  Turbulence  Mountain Waves  Volcanic Ashes






- Airport Elevation : 17 ft
- IATA code : GRQ


EHGG - Groningen Eelde

CURRENT METAR :
  • 070055Z AUTO 27011KT 230V300 9999 FEW008 SCT009 BKN011 09/08 Q1000

EXPIRED METARs :
  • 070025Z AUTO 26011KT 230V290 9999 SCT007 BKN008 OVC010 09/08 Q1000 REDZ
  • 062355Z AUTO 25011KT 5000 -SHRA FEW004 SCT006 BKN007 FEW015CB 09/08 Q0999 REDZ
  • 062325Z AUTO 24009KT 210V270 6000 -SHRA FEW005 SCT007 BKN008 FEW015CB 08/08 Q0999 RERA REDZ
  • 062255Z AUTO 23012KT 6000 -SHRA FEW008 BKN015CB OVC018 08/08 Q0999
  • 062225Z AUTO 23015KT 9000 -SHRA FEW007 BKN008 BKN010 FEW015CB 08/08 Q0998 RERA REDZ

TAF TAF EHGG
Valid from the 07 at 00:00 until the 08 at 06:00 UTC


062314Z 0700/0806 26011KT 9999 BKN020
PROB30
TEMPO 0700/0701 6000 RA BKN008
PROB30
TEMPO 0701/0715 7000 -SHRA RA BKN013 FEW016TCU
BECMG 0715/0718 24010KT
BECMG 0721/0724 21016KT
BECMG 0801/0804 20018G28KT



MET'MAP, your aeronautical weather chart ! - Copyright ORBIFLY December 2007 - Disclaimer

ORBIFLY MET'MAP TEAM :

Programming & Development : Alexandra Zaïnal
Concept & original design : Baudouin d'Aumeries
Assistance for programming : Marc-Olivier Méhu
Technical & hardware support : Manuel Goepfert

Contact : metmap@orbifly.com




SOURCES & CREDITS :

   NOAA